Time;durP1;ratioP1;P1;durP2;ratioP2;P2;SDS_P1;SDS_P2;PMS_P1;PMS_P2;Temp;Humidity;BMP_temperature;BMP_pressure;BME280_temperature;BME280_humidity;BME280_pressure;Samples;Min_cycle;Max_cycle;Signal;HPM_P1;HPM_P2
2022/07/01 00:00:05;;;;;;;7.47;3.20;;;;;;;22.13;71.65;100257.16;4971565;28;20902;-74
2022/07/01 00:02:32;;;;;;;6.65;2.90;;;;;;;22.38;71.02;100305.06;4972210;28;20030;-73
2022/07/01 00:04:57;;;;;;;5.93;3.30;;;;;;;22.40;70.98;100297.13;4969348;28;20581;-73
2022/07/01 00:07:23;;;;;;;9.25;3.05;;;;;;;22.43;70.51;100297.97;4969363;28;20027;-74
2022/07/01 00:09:49;;;;;;;7.75;3.55;;;;;;;22.44;70.69;100285.66;4985022;28;20525;-73
2022/07/01 00:12:14;;;;;;;6.00;3.17;;;;;;;22.33;70.57;100272.66;5020951;28;20168;-73
2022/07/01 00:14:41;;;;;;;7.90;3.10;;;;;;;22.42;71.53;100304.13;5004914;28;20076;-73
2022/07/01 00:17:09;;;;;;;6.82;2.78;;;;;;;22.36;69.52;100277.88;5014612;28;20033;-73
2022/07/01 00:19:34;;;;;;;4.88;3.00;;;;;;;22.05;70.80;100215.22;5028917;28;20575;-75
2022/07/01 00:22:01;;;;;;;7.88;3.20;;;;;;;22.28;70.88;100282.34;5029127;28;20068;-74
2022/07/01 00:24:27;;;;;;;6.18;2.88;;;;;;;21.90;72.19;100286.41;4995541;28;20045;-74
2022/07/01 00:26:54;;;;;;;8.15;3.45;;;;;;;21.79;72.40;100274.28;5028426;28;20137;-74
2022/07/01 00:29:21;;;;;;;6.90;3.15;;;;;;;22.00;71.96;100290.63;5028357;28;20033;-74
2022/07/01 00:31:47;;;;;;;7.05;2.55;;;;;;;22.03;71.68;100294.97;5043725;28;20072;-74
2022/07/01 00:34:13;;;;;;;6.72;2.83;;;;;;;21.75;72.82;100292.72;5039830;28;20460;-74
2022/07/01 00:36:39;;;;;;;6.85;3.05;;;;;;;21.53;73.83;100289.44;5019472;28;20109;-73
2022/07/01 00:39:07;;;;;;;8.93;2.95;;;;;;;21.49;74.07;100286.81;5044990;28;20108;-73
2022/07/01 00:41:35;;;;;;;11.32;2.95;;;;;;;21.60;74.04;100289.38;5049786;28;20024;-75
2022/07/01 00:44:01;;;;;;;6.55;3.10;;;;;;;21.51;74.07;100276.31;5049803;28;20042;-75
2022/07/01 00:46:27;;;;;;;8.27;3.13;;;;;;;21.45;73.92;100265.88;5042971;28;20029;-74
2022/07/01 00:48:57;;;;;;;9.25;3.50;;;;;;;21.66;74.29;100283.19;5039805;28;20111;-74
2022/07/01 00:51:23;;;;;;;9.82;3.63;;;;;;;21.51;74.71;100273.69;5047165;28;20104;-75
2022/07/01 00:53:51;;;;;;;10.02;3.15;;;;;;;21.67;74.24;100266.53;5040100;28;20037;-71
2022/07/01 00:56:18;;;;;;;8.05;3.05;;;;;;;21.51;74.17;100252.69;5044080;28;20645;-72
2022/07/01 00:58:43;;;;;;;7.95;3.17;;;;;;;21.70;73.92;100282.25;5046094;28;20048;-74
2022/07/01 01:01:09;;;;;;;8.75;3.00;;;;;;;21.58;73.46;100254.38;5033847;28;20067;-71
2022/07/01 01:03:35;;;;;;;15.52;3.35;;;;;;;21.88;72.94;100294.31;5030641;28;20037;-75
2022/07/01 01:06:02;;;;;;;13.10;3.55;;;;;;;21.85;75.32;100290.84;5039729;28;20029;-77
2022/07/01 01:08:28;;;;;;;22.50;4.93;;;;;;;21.79;75.98;100263.75;5045242;28;20037;-75
2022/07/01 01:10:55;;;;;;;18.10;4.25;;;;;;;21.90;76.74;100270.63;5035327;28;20041;-75
2022/07/01 01:13:21;;;;;;;18.88;3.72;;;;;;;21.84;76.25;100275.97;5050373;28;20067;-75
2022/07/01 01:15:47;;;;;;;15.65;3.88;;;;;;;21.82;76.34;100278.63;5013939;28;20091;-75
2022/07/01 01:18:14;;;;;;;14.32;3.53;;;;;;;21.66;77.08;100277.94;5027780;28;20535;-74
2022/07/01 01:21:00;;;;;;;13.60;3.38;;;;;;;20.88;78.55;100246.31;5013917;28;20038;-75
2022/07/01 01:23:26;;;;;;;6.03;3.47;;;;;;;20.80;78.37;100235.91;5031517;28;20136;-77
2022/07/01 01:25:51;;;;;;;4.53;3.13;;;;;;;20.47;79.93;100264.13;5020118;28;20037;-75
2022/07/01 01:28:17;;;;;;;8.25;3.35;;;;;;;19.86;80.50;100198.09;5011162;28;20042;-77
2022/07/01 01:30:43;;;;;;;6.75;3.17;;;;;;;20.01;78.86;100191.91;5011024;28;20034;-75
2022/07/01 01:33:08;;;;;;;7.70;2.80;;;;;;;20.23;79.75;100272.16;5043818;28;20477;-74
2022/07/01 01:35:35;;;;;;;6.25;3.20;;;;;;;19.76;82.14;100271.47;5010278;28;20033;-73
2022/07/01 01:38:00;;;;;;;8.20;3.55;;;;;;;19.38;83.19;100244.53;4993545;28;20112;-77
2022/07/01 01:40:26;;;;;;;6.22;3.30;;;;;;;19.70;81.76;100246.16;5009067;28;20130;-72
2022/07/01 01:42:52;;;;;;;5.85;2.83;;;;;;;20.01;80.99;100267.00;5010749;28;20034;-72
2022/07/01 01:45:18;;;;;;;12.32;3.40;;;;;;;19.93;81.02;100253.09;5043400;28;20045;-77
2022/07/01 01:47:43;;;;;;;6.18;3.33;;;;;;;19.74;81.41;100234.81;5010754;28;20033;-75
2022/07/01 01:50:12;;;;;;;6.00;3.25;;;;;;;20.07;80.74;100273.97;5009704;28;20041;-76
2022/07/01 01:52:38;;;;;;;8.25;3.03;;;;;;;20.13;79.98;100261.69;5015096;28;20590;-74
2022/07/01 01:55:05;;;;;;;7.07;3.90;;;;;;;20.12;80.05;100248.59;5026618;28;21898;-75
2022/07/01 01:57:30;;;;;;;10.20;3.60;;;;;;;20.18;77.93;100232.84;5026445;28;20064;-77
2022/07/01 01:59:56;;;;;;;7.70;3.20;;;;;;;20.47;77.32;100266.75;5032496;28;20053;-75
2022/07/01 02:02:22;;;;;;;8.23;3.05;;;;;;;20.54;76.37;100257.06;5032160;28;20022;-76
2022/07/01 02:04:48;;;;;;;5.93;3.00;;;;;;;20.75;76.08;100261.31;5032122;28;20025;-75
2022/07/01 02:07:14;;;;;;;5.95;3.35;;;;;;;20.76;76.79;100252.56;5032699;28;20053;-76
2022/07/01 02:09:40;;;;;;;9.43;3.28;;;;;;;21.01;78.70;100261.06;5032309;28;20057;-75
2022/07/01 02:12:06;;;;;;;6.03;3.33;;;;;;;21.15;77.50;100266.19;5032319;28;20032;-73
2022/07/01 02:14:32;;;;;;;12.10;3.50;;;;;;;21.43;75.22;100279.03;5047829;28;20021;-73
2022/07/01 02:16:58;;;;;;;7.43;3.05;;;;;;;21.60;72.23;100270.13;5031950;28;20029;-74
2022/07/01 02:19:23;;;;;;;4.72;2.90;;;;;;;21.49;72.45;100270.22;5046949;28;20041;-75
2022/07/01 02:21:50;;;;;;;7.75;3.45;;;;;;;21.42;72.59;100285.19;5046844;28;20049;-75
2022/07/01 02:24:17;;;;;;;6.93;3.10;;;;;;;21.23;73.14;100275.75;5046056;28;20069;-73
2022/07/01 02:26:42;;;;;;;6.00;3.45;;;;;;;21.05;73.64;100272.41;5045308;28;20082;-74
2022/07/01 02:29:08;;;;;;;9.88;2.88;;;;;;;21.20;73.56;100300.28;5052266;28;20103;-74
2022/07/01 02:31:33;;;;;;;6.22;3.20;;;;;;;21.16;73.46;100275.81;5052341;28;20028;-75
2022/07/01 02:34:19;;;;;;;12.88;4.07;;;;;;;20.49;74.17;100220.38;5029243;28;20029;-70
2022/07/01 02:36:44;;;;;;;8.82;3.45;;;;;;;20.65;75.53;100307.69;5016146;28;20046;-71
2022/07/01 02:39:10;;;;;;;12.13;3.40;;;;;;;20.66;75.99;100316.41;5029641;28;20034;-74
2022/07/01 02:42:22;;;;;;;8.60;3.20;;;;;;;20.60;75.25;100309.47;5029845;28;20041;-73
2022/07/01 02:44:21;;;;;;;7.07;3.35;;;;;;;20.48;75.97;100288.59;5013974;28;20041;-74
2022/07/01 02:46:46;;;;;;;7.43;3.38;;;;;;;20.62;75.87;100317.31;5015238;28;20121;-73
2022/07/01 02:49:12;;;;;;;8.25;3.38;;;;;;;20.38;75.73;100272.03;5009652;28;20630;-73
2022/07/01 02:51:37;;;;;;;8.23;3.40;;;;;;;20.59;75.04;100306.88;5009481;28;20505;-74
2022/07/01 02:54:04;;;;;;;7.53;3.50;;;;;;;20.64;74.90;100312.94;5007441;28;20108;-72
2022/07/01 02:56:30;;;;;;;7.95;3.25;;;;;;;20.53;74.08;100287.66;5009023;28;20025;-73
2022/07/01 02:58:56;;;;;;;9.55;3.40;;;;;;;20.62;72.73;100335.69;5009050;28;20116;-72
2022/07/01 03:01:21;;;;;;;5.10;3.25;;;;;;;20.42;74.33;100334.06;5007372;28;20573;-73
2022/07/01 03:03:46;;;;;;;8.88;3.33;;;;;;;20.04;73.28;100246.03;5007929;28;20108;-72
2022/07/01 03:06:13;;;;;;;11.15;3.28;;;;;;;20.44;73.38;100300.84;5023839;28;20037;-73
2022/07/01 03:08:39;;;;;;;10.65;3.92;;;;;;;20.50;74.42;100331.41;5042439;28;20040;-73
2022/07/01 03:11:04;;;;;;;10.00;4.22;;;;;;;20.18;74.94;100265.16;5050377;28;20025;-72
2022/07/01 03:13:30;;;;;;;9.38;4.15;;;;;;;20.51;74.48;100335.75;5051349;28;20033;-74
2022/07/01 03:15:55;;;;;;;5.50;3.13;;;;;;;19.96;74.96;100247.81;5051033;28;20112;-73
2022/07/01 03:18:21;;;;;;;7.75;3.75;;;;;;;20.52;73.97;100293.81;5050420;28;20029;-71
2022/07/01 03:20:48;;;;;;;8.85;3.97;;;;;;;20.82;73.53;100325.09;5051358;28;20025;-72
2022/07/01 03:23:14;;;;;;;10.25;4.25;;;;;;;20.43;73.87;100269.38;5051073;28;20411;-73
2022/07/01 03:25:39;;;;;;;10.48;4.15;;;;;;;20.59;74.07;100296.38;5041733;28;20029;-73
2022/07/01 03:28:05;;;;;;;13.55;4.47;;;;;;;20.75;74.32;100341.75;5045444;28;20028;-76
2022/07/01 03:30:30;;;;;;;6.03;3.35;;;;;;;19.86;76.45;100343.91;5050863;28;20492;-74
2022/07/01 03:32:56;;;;;;;7.43;3.45;;;;;;;19.69;76.30;100310.78;5038952;28;20026;-73
2022/07/01 03:35:39;;;;;;;6.00;3.40;;;;;;;19.83;76.24;100321.22;5045672;28;20399;-73
2022/07/01 03:38:05;;;;;;;9.20;4.10;;;;;;;19.82;76.75;100324.69;5045320;28;20099;-73
2022/07/01 03:40:33;;;;;;;6.00;3.95;;;;;;;19.76;77.08;100314.22;5048923;28;20036;-72
2022/07/01 03:42:59;;;;;;;8.57;4.82;;;;;;;20.00;77.59;100334.28;5050322;28;20032;-72
2022/07/01 03:45:25;;;;;;;6.20;3.97;;;;;;;19.97;77.22;100320.31;5049969;28;20033;-73
2022/07/01 03:47:51;;;;;;;9.93;3.97;;;;;;;19.93;77.94;100336.94;5050669;28;20036;-74
2022/07/01 03:50:20;;;;;;;8.55;4.07;;;;;;;19.68;78.91;100305.53;5050767;28;20029;-75
2022/07/01 03:52:45;;;;;;;8.30;3.60;;;;;;;19.69;78.72;100302.06;5050686;28;20021;-73
2022/07/01 03:55:11;;;;;;;10.02;4.00;;;;;;;19.99;78.92;100336.91;5050674;28;20029;-74
2022/07/01 03:57:37;;;;;;;6.90;3.70;;;;;;;19.92;80.20;100336.03;5050599;28;20033;-73
2022/07/01 04:00:05;;;;;;;11.80;6.00;;;;;;;19.88;80.92;100329.09;5049482;28;20109;-72
2022/07/01 04:02:30;;;;;;;9.00;4.22;;;;;;;20.03;80.86;100334.25;5031610;28;20041;-73
2022/07/01 04:04:55;;;;;;;8.80;4.10;;;;;;;20.14;79.68;100334.22;5050532;28;20037;-73
2022/07/01 04:07:21;;;;;;;5.90;3.60;;;;;;;20.16;79.87;100340.31;5050274;28;20028;-71
2022/07/01 04:09:47;;;;;;;8.68;4.15;;;;;;;20.15;79.62;100333.34;5042498;28;20212;-73
2022/07/01 04:12:13;;;;;;;6.88;4.38;;;;;;;20.18;80.17;100345.56;5042030;28;20029;-71
2022/07/01 04:14:39;;;;;;;8.93;3.83;;;;;;;20.18;80.55;100351.66;5050186;28;20032;-71
2022/07/01 04:17:05;;;;;;;7.15;4.18;;;;;;;20.27;79.84;100347.25;5050366;28;20037;-76
2022/07/01 04:19:31;;;;;;;14.48;4.60;;;;;;;20.19;80.07;100337.69;5048026;28;20419;-72
2022/07/01 04:24:41;;;;;;;8.02;4.20;;;;;;;20.02;80.39;100295.81;5049918;28;20048;-72
2022/07/01 04:27:06;;;;;;;7.03;4.43;;;;;;;20.28;79.91;100318.41;5040589;28;20029;-73
2022/07/01 04:29:32;;;;;;;8.35;4.47;;;;;;;20.43;81.19;100363.78;5044575;28;20111;-73
2022/07/01 04:31:58;;;;;;;7.95;5.00;;;;;;;20.01;80.51;100273.13;5050312;28;20820;-73
2022/07/01 04:34:24;;;;;;;8.10;4.72;;;;;;;20.42;80.83;100331.44;5049896;28;20511;-77
2022/07/01 04:36:50;;;;;;;9.02;4.72;;;;;;;20.53;81.36;100358.47;5035857;28;20026;-72
2022/07/01 04:39:16;;;;;;;7.20;4.50;;;;;;;20.31;82.14;100346.34;5049858;28;20044;-73
2022/07/01 04:41:59;;;;;;;8.23;4.53;;;;;;;20.25;82.92;100346.38;5050456;28;20033;-73
2022/07/01 04:44:26;;;;;;;7.53;4.00;;;;;;;20.12;83.32;100317.59;5049900;28;20488;-73
2022/07/01 04:46:51;;;;;;;6.32;4.32;;;;;;;20.42;82.76;100359.41;5048456;28;20112;-73
2022/07/01 04:49:17;;;;;;;12.20;4.78;;;;;;;19.89;83.28;100283.66;5049729;28;20029;-73
2022/07/01 04:51:43;;;;;;;8.15;4.30;;;;;;;20.06;83.79;100319.41;5049476;28;20061;-74
2022/07/01 04:54:09;;;;;;;7.10;4.72;;;;;;;20.17;84.76;100356.91;5049652;28;20056;-73
2022/07/01 04:56:36;;;;;;;10.63;4.63;;;;;;;20.18;84.88;100369.16;5049828;28;20029;-72
2022/07/01 04:59:02;;;;;;;10.13;4.53;;;;;;;20.29;85.09;100369.97;5056540;28;20057;-73
2022/07/01 05:01:28;;;;;;;8.23;5.00;;;;;;;20.40;85.19;100369.91;5056360;28;20499;-73
2022/07/01 05:03:55;;;;;;;11.13;4.57;;;;;;;20.51;84.77;100364.59;5055771;28;20021;-72
2022/07/01 05:06:21;;;;;;;13.43;4.80;;;;;;;20.62;84.53;100362.81;5056155;28;20047;-76
2022/07/01 05:08:46;;;;;;;9.95;4.43;;;;;;;20.73;84.47;100362.75;5056232;28;20025;-73
2022/07/01 05:11:12;;;;;;;9.95;4.22;;;;;;;20.92;84.39;100366.13;5056217;28;20033;-72
2022/07/01 05:13:37;;;;;;;7.90;4.13;;;;;;;20.97;83.23;100351.22;5056239;28;20032;-73
2022/07/01 05:16:04;;;;;;;8.43;4.65;;;;;;;21.16;83.34;100357.19;5056447;28;20415;-73
2022/07/01 05:23:58;;;;;;;12.32;4.55;;;;;;;21.39;81.23;100306.19;5056326;28;20067;-78
2022/07/01 05:26:25;;;;;;;11.23;4.05;;;;;;;21.73;79.67;100347.03;5056396;28;20056;-71
2022/07/01 05:28:52;;;;;;;8.80;4.10;;;;;;;21.81;80.98;100347.81;5056263;28;20055;-71
2022/07/01 05:31:18;;;;;;;10.52;4.30;;;;;;;21.71;80.36;100318.16;5054230;28;20082;-73
2022/07/01 05:33:43;;;;;;;9.70;4.28;;;;;;;21.63;80.06;100291.09;5056355;28;20056;-72
2022/07/01 05:36:10;;;;;;;15.18;4.10;;;;;;;22.13;79.82;100362.31;5045295;28;20030;-75
2022/07/01 05:38:35;;;;;;;7.47;4.05;;;;;;;21.80;79.16;100283.88;5035761;28;20018;-73
2022/07/01 05:41:01;;;;;;;9.13;4.40;;;;;;;22.39;78.78;100364.66;5051510;28;20095;-75
2022/07/01 05:43:26;;;;;;;12.20;4.18;;;;;;;22.43;78.65;100337.44;5052745;28;20119;-74
2022/07/01 05:45:52;;;;;;;9.23;4.00;;;;;;;22.61;77.50;100348.56;5055869;28;20045;-71
2022/07/01 05:48:18;;;;;;;8.80;4.25;;;;;;;22.69;77.92;100357.22;5056179;28;20025;-74
2022/07/01 05:50:43;;;;;;;5.78;3.90;;;;;;;22.74;77.24;100355.41;5056253;28;20094;-73
2022/07/01 05:53:09;;;;;;;8.55;4.15;;;;;;;22.80;77.53;100359.69;5056101;28;20056;-73
2022/07/01 05:55:35;;;;;;;8.63;4.30;;;;;;;22.91;78.04;100354.25;5055840;28;20017;-73
2022/07/01 05:58:01;;;;;;;4.90;3.90;;;;;;;23.05;77.29;100354.03;5040869;28;20025;-72
2022/07/01 06:00:27;;;;;;;9.98;4.35;;;;;;;23.04;75.97;100334.75;5055406;28;20407;-72
2022/07/01 06:02:52;;;;;;;7.85;4.32;;;;;;;22.85;76.91;100289.41;5036859;28;20537;-72
2022/07/01 06:05:18;;;;;;;9.48;4.28;;;;;;;23.07;75.46;100310.97;5056079;28;20066;-73
2022/07/01 06:07:44;;;;;;;10.00;4.50;;;;;;;23.40;75.67;100353.47;5051681;28;20029;-72
2022/07/01 06:10:10;;;;;;;7.78;4.22;;;;;;;23.42;75.72;100338.47;5041719;28;20099;-74
2022/07/01 06:12:38;;;;;;;8.70;4.68;;;;;;;23.66;74.92;100356.50;5039645;28;20079;-74
2022/07/01 06:15:07;;;;;;;6.22;3.60;;;;;;;23.84;75.29;100355.25;5063576;28;20049;-74
2022/07/01 06:17:34;;;;;;;9.25;4.57;;;;;;;23.99;74.20;100357.63;5033009;28;20057;-74
2022/07/01 06:20:00;;;;;;;7.95;4.60;;;;;;;24.09;74.07;100353.03;5032883;28;20108;-73
2022/07/01 06:22:26;;;;;;;6.90;4.38;;;;;;;24.23;72.99;100358.88;5047835;28;20045;-77
2022/07/01 06:24:52;;;;;;;8.18;4.63;;;;;;;24.35;73.11;100357.75;5032895;28;20026;-74
2022/07/01 06:27:18;;;;;;;7.60;4.20;;;;;;;24.52;71.91;100353.88;5046429;28;20452;-73
2022/07/01 06:29:44;;;;;;;11.20;5.13;;;;;;;24.57;71.88;100340.56;5048029;28;20040;-71
2022/07/01 06:32:09;;;;;;;9.00;4.30;;;;;;;24.71;70.96;100343.78;5030527;28;20030;-74
2022/07/01 06:34:35;;;;;;;8.13;4.82;;;;;;;24.87;70.47;100346.91;5032160;28;20037;-73
2022/07/01 06:37:03;;;;;;;7.45;4.25;;;;;;;25.00;70.43;100352.78;5032002;28;20045;-73
2022/07/01 06:39:29;;;;;;;6.05;4.60;;;;;;;25.09;70.20;100343.75;5032019;28;20492;-79
2022/07/01 06:41:55;;;;;;;10.38;5.03;;;;;;;25.17;68.49;100352.34;5032605;28;20025;-75
2022/07/01 06:44:21;;;;;;;8.80;4.38;;;;;;;25.27;67.29;100345.03;5031985;28;20887;-75
2022/07/01 06:46:46;;;;;;;7.32;4.57;;;;;;;25.14;67.85;100326.00;5033019;28;20026;-74
2022/07/01 06:49:12;;;;;;;9.07;5.10;;;;;;;25.37;68.75;100348.34;5042357;28;20468;-75
2022/07/01 06:51:41;;;;;;;7.10;4.90;;;;;;;25.30;67.15;100313.28;5031444;28;20060;-75
2022/07/01 06:54:06;;;;;;;11.82;4.57;;;;;;;25.60;66.98;100350.38;5030667;28;20034;-73
2022/07/01 06:56:32;;;;;;;8.93;4.63;;;;;;;25.52;66.42;100326.78;5031119;28;20033;-74
2022/07/01 06:58:58;;;;;;;11.68;4.90;;;;;;;25.48;65.86;100315.44;5031889;28;20033;-74
2022/07/01 07:01:23;;;;;;;7.72;4.70;;;;;;;25.60;65.73;100324.81;5029554;28;20045;-70
2022/07/01 07:03:49;;;;;;;13.98;4.90;;;;;;;25.71;65.43;100345.66;5031202;28;20087;-73
2022/07/01 07:06:16;;;;;;;9.65;4.70;;;;;;;25.83;64.92;100333.84;5031452;28;20143;-73
2022/07/01 07:08:42;;;;;;;11.77;4.60;;;;;;;26.08;64.78;100347.28;5040734;28;20029;-75
2022/07/01 07:11:08;;;;;;;7.60;4.55;;;;;;;25.83;63.06;100289.78;5032298;28;20041;-76
2022/07/01 07:13:37;;;;;;;7.50;4.60;;;;;;;26.15;64.90;100340.88;5048758;28;20028;-77
2022/07/01 07:16:05;;;;;;;8.70;4.90;;;;;;;26.18;64.14;100342.56;5050460;28;20037;-77
2022/07/01 07:18:33;;;;;;;9.13;4.35;;;;;;;26.03;63.77;100298.03;5051857;28;20258;-77
2022/07/01 07:20:59;;;;;;;6.20;4.15;;;;;;;26.48;62.79;100351.38;5050954;28;20060;-76
2022/07/01 07:23:24;;;;;;;10.23;4.70;;;;;;;26.60;62.86;100352.75;5050406;28;20570;-77
2022/07/01 07:25:50;;;;;;;6.03;4.28;;;;;;;26.74;62.13;100354.13;5051244;28;20017;-75
2022/07/01 07:28:16;;;;;;;11.82;5.10;;;;;;;26.77;62.62;100354.91;5067233;28;20025;-76
2022/07/01 07:31:02;;;;;;;7.07;4.65;;;;;;;26.77;60.62;100327.56;5048713;28;20045;-76
2022/07/01 07:33:48;;;;;;;11.43;4.78;;;;;;;27.07;60.33;100346.00;5049140;28;20065;-75
2022/07/01 07:36:14;;;;;;;6.82;3.97;;;;;;;27.29;59.33;100354.94;4987619;28;20046;-75
2022/07/01 07:38:40;;;;;;;8.38;4.68;;;;;;;27.13;60.09;100329.91;5001009;28;20547;-75
2022/07/01 07:41:06;;;;;;;10.15;4.88;;;;;;;27.29;60.99;100354.06;5000690;28;20050;-77
2022/07/01 07:43:32;;;;;;;8.20;4.70;;;;;;;27.31;61.59;100340.78;4972019;28;20042;-75
2022/07/01 07:45:57;;;;;;;9.07;4.38;;;;;;;27.39;60.45;100363.44;4952684;28;20097;-75
2022/07/01 07:48:23;;;;;;;10.07;4.40;;;;;;;27.45;59.92;100354.44;4967700;28;20043;-75
2022/07/01 07:50:48;;;;;;;9.90;5.47;;;;;;;27.23;59.84;100288.91;4967846;28;20078;-75
2022/07/01 07:53:14;;;;;;;8.27;4.80;;;;;;;27.56;60.15;100340.78;4967588;28;20038;-73
2022/07/01 07:55:40;;;;;;;9.68;4.45;;;;;;;27.71;57.83;100342.03;4984557;28;20039;-73
2022/07/01 07:58:06;;;;;;;12.25;6.22;;;;;;;27.68;57.68;100320.94;4968485;28;20093;-76
2022/07/01 08:00:31;;;;;;;10.93;4.68;;;;;;;27.69;57.40;100310.25;4968549;28;20046;-76
2022/07/01 08:02:57;;;;;;;10.43;5.53;;;;;;;28.08;58.85;100353.97;4962083;28;20446;-74
2022/07/01 08:05:22;;;;;;;8.13;4.60;;;;;;;28.08;57.39;100349.50;4968757;28;20465;-72
2022/07/01 08:07:48;;;;;;;10.43;4.57;;;;;;;28.20;56.84;100357.94;4968956;28;20038;-72
2022/07/01 08:10:14;;;;;;;6.68;4.28;;;;;;;28.44;55.60;100355.22;4969181;28;20035;-72
2022/07/01 08:12:40;;;;;;;10.63;4.63;;;;;;;28.45;56.01;100351.66;4970506;28;20027;-72
2022/07/01 08:15:06;;;;;;;6.82;4.25;;;;;;;28.36;55.58;100343.16;4987619;28;20121;-74
2022/07/01 08:17:32;;;;;;;7.70;3.95;;;;;;;28.54;54.79;100341.53;4987351;28;20034;-75
2022/07/01 08:19:57;;;;;;;12.88;5.03;;;;;;;28.70;55.50;100346.28;4988416;28;20125;-74
2022/07/01 08:22:23;;;;;;;10.27;5.18;;;;;;;28.83;55.75;100350.16;5009590;28;20046;-72
2022/07/01 08:24:48;;;;;;;6.32;4.10;;;;;;;28.87;57.15;100345.56;5028241;28;20514;-74
2022/07/01 08:27:14;;;;;;;6.82;4.07;;;;;;;28.81;55.78;100336.09;5029163;28;20055;-76
2022/07/01 08:29:40;;;;;;;7.65;4.68;;;;;;;28.55;58.00;100308.75;5029420;28;20032;-72
2022/07/01 08:32:06;;;;;;;5.70;4.40;;;;;;;28.80;54.87;100339.66;5029197;28;20460;-74
2022/07/01 08:34:32;;;;;;;6.97;4.55;;;;;;;28.96;53.74;100345.22;5028962;28;20032;-76
2022/07/01 08:36:57;;;;;;;11.05;4.38;;;;;;;28.66;53.59;100278.22;5028047;28;20033;-75
2022/07/01 08:39:23;;;;;;;7.15;4.45;;;;;;;29.17;55.53;100340.78;5029333;28;20033;-72
2022/07/01 08:41:48;;;;;;;7.63;4.20;;;;;;;29.39;52.80;100342.53;5029736;28;20026;-73
2022/07/01 08:44:14;;;;;;;10.90;4.60;;;;;;;29.25;53.78;100328.91;5027573;28;20029;-74
2022/07/01 08:46:40;;;;;;;8.80;4.15;;;;;;;29.39;51.66;100344.34;5023971;28;20061;-73
2022/07/01 08:49:06;;;;;;;9.30;4.35;;;;;;;29.09;51.20;100299.50;5042985;28;20049;-72
2022/07/01 08:51:31;;;;;;;6.75;4.28;;;;;;;29.18;51.15;100323.88;5028804;28;20029;-72
2022/07/01 08:53:57;;;;;;;8.95;4.30;;;;;;;29.34;51.18;100333.88;5023305;28;20042;-76
2022/07/01 08:56:40;;;;;;;6.95;4.20;;;;;;;29.43;56.54;100325.50;5015872;28;20037;-74
2022/07/01 08:59:06;;;;;;;5.68;3.65;;;;;;;29.66;54.27;100332.47;5031708;28;20117;-77
2022/07/01 09:01:32;;;;;;;12.13;3.92;;;;;;;29.73;51.43;100326.88;5025043;28;20575;-76
2022/07/01 09:04:13;;;;;;;9.18;4.68;;;;;;;29.85;51.14;100334.28;5046567;28;20045;-76
2022/07/01 09:06:40;;;;;;;10.38;4.55;;;;;;;29.99;50.04;100323.88;5047722;28;20024;-74
2022/07/01 09:09:22;;;;;;;5.95;4.00;;;;;;;29.78;49.83;100266.31;5009332;28;20037;-76
2022/07/01 09:11:53;;;;;;;8.25;4.32;;;;;;;30.25;49.54;100319.13;5023494;28;20103;-76
2022/07/01 09:14:20;;;;;;;7.78;4.20;;;;;;;30.38;49.10;100319.44;5049600;28;20428;-74
2022/07/01 09:16:51;;;;;;;6.18;4.03;;;;;;;30.60;51.25;100334.38;5009545;28;20392;-73
2022/07/01 09:19:19;;;;;;;7.93;3.95;;;;;;;30.66;48.75;100334.09;5036894;28;20445;-73
2022/07/01 09:21:56;;;;;;;7.40;4.05;;;;;;;30.68;51.11;100318.00;5049210;28;20503;-73
2022/07/01 09:24:36;;;;;;;5.35;3.95;;;;;;;30.77;50.97;100328.22;5012816;28;20041;-76
2022/07/01 09:27:10;;;;;;;8.48;4.10;;;;;;;30.62;48.63;100284.56;5024864;28;20038;-73
2022/07/01 09:29:41;;;;;;;9.63;4.03;;;;;;;31.01;46.60;100325.28;5029924;28;20044;-73
2022/07/01 09:32:09;;;;;;;6.22;3.83;;;;;;;31.07;45.47;100317.84;5035093;28;20033;-78
2022/07/01 09:34:42;;;;;;;10.38;3.95;;;;;;;31.23;48.09;100319.69;5011616;28;20062;-75
2022/07/01 09:37:11;;;;;;;7.13;3.60;;;;;;;31.32;44.61;100313.91;5016322;28;20496;-73
2022/07/01 09:39:52;;;;;;;8.40;4.28;;;;;;;31.34;47.75;100300.47;5009239;28;20085;-75
2022/07/01 09:42:19;;;;;;;6.30;4.03;;;;;;;31.56;43.81;100305.53;5009217;28;20025;-74
2022/07/01 09:45:04;;;;;;;7.55;3.67;;;;;;;31.86;46.13;100310.19;5007078;28;20048;-75
2022/07/01 09:47:31;;;;;;;5.63;4.07;;;;;;;31.78;45.97;100297.28;5031294;28;20029;-76
2022/07/01 09:49:58;;;;;;;9.20;3.73;;;;;;;32.05;44.91;100310.03;5029783;28;20045;-76
2022/07/01 09:52:25;;;;;;;7.03;3.55;;;;;;;31.94;41.84;100275.94;5046732;28;20251;-75
2022/07/01 09:54:52;;;;;;;9.23;4.40;;;;;;;32.28;40.91;100307.91;5016053;28;20056;-75
2022/07/01 09:57:19;;;;;;;8.20;3.30;;;;;;;32.06;37.60;100280.56;5047488;28;20029;-74
2022/07/01 09:59:44;;;;;;;13.18;4.30;;;;;;;32.09;36.85;100300.91;5029539;28;20045;-75
2022/07/01 10:02:12;;;;;;;11.93;4.45;;;;;;;32.25;36.90;100306.25;5029033;28;20270;-74
2022/07/01 10:04:42;;;;;;;23.08;4.97;;;;;;;32.03;37.01;100238.03;5010097;28;20071;-74
2022/07/01 10:07:22;;;;;;;15.95;5.28;;;;;;;32.47;37.26;100292.53;5025549;28;20033;-76
2022/07/01 10:09:57;;;;;;;21.88;6.25;;;;;;;32.65;37.15;100293.31;5004276;28;20492;-76
2022/07/01 10:12:35;;;;;;;11.68;4.65;;;;;;;32.72;36.63;100286.63;5049745;28;20041;-76
2022/07/01 10:15:02;;;;;;;13.13;4.88;;;;;;;32.67;36.48;100285.19;5027646;28;20127;-75
2022/07/01 10:17:36;;;;;;;11.00;4.60;;;;;;;32.74;36.50;100267.84;5058184;28;20025;-75
2022/07/01 10:20:30;;;;;;;19.85;4.82;;;;;;;32.90;37.13;100262.47;5029676;28;20029;-76
2022/07/01 10:23:09;;;;;;;14.30;4.90;;;;;;;33.08;34.85;100252.47;5007160;28;20524;-75
2022/07/01 10:25:41;;;;;;;7.22;3.90;;;;;;;33.30;34.98;100265.41;5009682;28;20116;-75
2022/07/01 10:28:29;;;;;;;10.30;4.40;;;;;;;33.53;35.49;100269.31;5004301;28;20128;-76
2022/07/01 10:31:04;;;;;;;9.23;4.20;;;;;;;33.57;39.15;100237.88;5029465;28;20040;-75
2022/07/01 10:33:38;;;;;;;9.68;3.58;;;;;;;33.92;33.49;100244.63;5023403;28;20069;-75
2022/07/01 10:36:10;;;;;;;6.50;3.65;;;;;;;34.16;32.59;100269.81;5029104;28;20033;-75
2022/07/01 10:41:31;;;;;;;10.25;3.75;;;;;;;33.99;33.88;100209.31;5024221;28;20087;-75
2022/07/01 10:43:58;;;;;;;7.43;3.58;;;;;;;34.09;33.33;100206.03;4976857;28;20052;-75
2022/07/01 10:46:45;;;;;;;12.35;4.32;;;;;;;34.60;32.55;100261.66;5009360;28;20042;-76
2022/07/01 10:49:15;;;;;;;11.20;4.32;;;;;;;34.56;33.13;100226.16;5008470;28;20130;-75
2022/07/01 10:51:50;;;;;;;12.15;4.60;;;;;;;34.72;31.67;100254.56;5026354;28;20046;-74
2022/07/01 10:54:39;;;;;;;15.35;4.82;;;;;;;34.96;32.38;100255.63;5034539;28;20037;-76
2022/07/01 10:57:19;;;;;;;11.70;4.43;;;;;;;35.05;31.00;100247.91;5031493;28;20073;-76
2022/07/01 10:59:51;;;;;;;11.15;4.60;;;;;;;34.74;34.29;100199.88;5028881;28;20108;-74
2022/07/01 11:02:25;;;;;;;8.80;3.95;;;;;;;34.86;31.44;100250.94;5030177;28;20238;-75
2022/07/01 11:04:53;;;;;;;11.75;4.25;;;;;;;34.57;33.16;100252.00;5034474;28;20037;-76
2022/07/01 11:07:20;;;;;;;20.55;4.90;;;;;;;33.81;32.68;100179.22;5024002;28;20117;-74
2022/07/01 11:09:45;;;;;;;26.15;5.45;;;;;;;34.00;33.57;100229.78;5016250;28;20507;-74
2022/07/01 11:12:15;;;;;;;14.73;4.72;;;;;;;34.02;32.11;100186.81;5023654;28;20033;-75
2022/07/01 11:14:41;;;;;;;10.15;4.43;;;;;;;34.48;32.92;100226.66;5050817;28;20108;-75
2022/07/01 11:17:08;;;;;;;10.30;3.67;;;;;;;34.65;35.12;100224.66;5051177;28;20103;-76
2022/07/01 11:19:34;;;;;;;6.72;3.90;;;;;;;34.51;35.73;100220.25;5034972;28;20094;-77
2022/07/01 11:22:02;;;;;;;9.45;4.15;;;;;;;34.74;33.05;100207.94;5050943;28;20056;-76
2022/07/01 11:24:29;;;;;;;8.88;4.03;;;;;;;34.96;32.38;100210.00;5051145;28;20060;-75
2022/07/01 11:27:01;;;;;;;8.18;4.07;;;;;;;35.09;30.88;100209.16;5050998;28;20033;-75
2022/07/01 11:29:29;;;;;;;11.20;4.32;;;;;;;34.76;30.14;100151.53;5033048;28;20496;-75
2022/07/01 11:31:55;;;;;;;13.50;4.43;;;;;;;35.40;31.39;100217.75;5043557;28;20038;-76
2022/07/01 11:34:21;;;;;;;14.60;4.55;;;;;;;35.57;30.49;100201.28;5043578;28;20087;-76